sensor_id;sensor_type;location;lat;lon;timestamp;temperature;humidity
14210;DHT22;7188;56.070;12.698;2023-08-06T00:00:40;14.40;99.90
14210;DHT22;7188;56.070;12.698;2023-08-06T00:03:06;14.40;99.90
14210;DHT22;7188;56.070;12.698;2023-08-06T00:05:31;14.40;99.90
14210;DHT22;7188;56.070;12.698;2023-08-06T00:07:57;14.30;99.90
14210;DHT22;7188;56.070;12.698;2023-08-06T00:10:22;14.20;99.90
14210;DHT22;7188;56.070;12.698;2023-08-06T00:12:48;14.10;99.90
14210;DHT22;7188;56.070;12.698;2023-08-06T00:15:29;14.00;99.90
14210;DHT22;7188;56.070;12.698;2023-08-06T00:17:54;14.00;99.90
14210;DHT22;7188;56.070;12.698;2023-08-06T00:20:20;14.00;99.90
14210;DHT22;7188;56.070;12.698;2023-08-06T00:22:46;14.10;99.90
14210;DHT22;7188;56.070;12.698;2023-08-06T00:25:11;14.10;99.90
14210;DHT22;7188;56.070;12.698;2023-08-06T00:27:37;14.00;99.90
14210;DHT22;7188;56.070;12.698;2023-08-06T00:30:04;13.90;99.90
14210;DHT22;7188;56.070;12.698;2023-08-06T00:32:29;13.80;99.90
14210;DHT22;7188;56.070;12.698;2023-08-06T00:34:55;13.80;99.90
14210;DHT22;7188;56.070;12.698;2023-08-06T00:37:20;13.70;99.90
14210;DHT22;7188;56.070;12.698;2023-08-06T00:39:46;13.80;99.90
14210;DHT22;7188;56.070;12.698;2023-08-06T00:42:12;13.80;99.90
14210;DHT22;7188;56.070;12.698;2023-08-06T00:44:38;13.80;99.90
14210;DHT22;7188;56.070;12.698;2023-08-06T00:47:04;13.70;99.90
14210;DHT22;7188;56.070;12.698;2023-08-06T00:49:31;13.80;99.90
14210;DHT22;7188;56.070;12.698;2023-08-06T00:51:57;13.90;99.90
14210;DHT22;7188;56.070;12.698;2023-08-06T00:54:23;13.90;99.90
14210;DHT22;7188;56.070;12.698;2023-08-06T00:56:50;13.90;99.90
14210;DHT22;7188;56.070;12.698;2023-08-06T00:59:15;13.80;99.90
14210;DHT22;7188;56.070;12.698;2023-08-06T01:01:41;13.90;99.90
14210;DHT22;7188;56.070;12.698;2023-08-06T01:04:07;13.90;99.90
14210;DHT22;7188;56.070;12.698;2023-08-06T01:06:55;13.80;99.90
14210;DHT22;7188;56.070;12.698;2023-08-06T01:12:21;13.60;99.90
14210;DHT22;7188;56.070;12.698;2023-08-06T01:15:15;13.50;99.90
14210;DHT22;7188;56.070;12.698;2023-08-06T01:17:44;13.40;99.90
14210;DHT22;7188;56.070;12.698;2023-08-06T01:20:10;13.40;99.90
14210;DHT22;7188;56.070;12.698;2023-08-06T01:22:36;13.40;99.90
14210;DHT22;7188;56.070;12.698;2023-08-06T01:25:17;13.30;99.90
14210;DHT22;7188;56.070;12.698;2023-08-06T01:27:53;13.60;99.90
14210;DHT22;7188;56.070;12.698;2023-08-06T01:30:30;13.50;99.90
14210;DHT22;7188;56.070;12.698;2023-08-06T01:32:59;13.70;99.90
14210;DHT22;7188;56.070;12.698;2023-08-06T01:35:27;13.60;99.90
14210;DHT22;7188;56.070;12.698;2023-08-06T01:37:53;13.50;99.90
14210;DHT22;7188;56.070;12.698;2023-08-06T01:40:20;13.40;99.90
14210;DHT22;7188;56.070;12.698;2023-08-06T01:42:45;13.30;99.90
14210;DHT22;7188;56.070;12.698;2023-08-06T01:45:11;13.30;99.90
14210;DHT22;7188;56.070;12.698;2023-08-06T01:47:36;13.40;99.90
14210;DHT22;7188;56.070;12.698;2023-08-06T01:50:03;13.40;99.90
14210;DHT22;7188;56.070;12.698;2023-08-06T01:52:28;13.30;99.90
14210;DHT22;7188;56.070;12.698;2023-08-06T01:54:54;13.20;99.90
14210;DHT22;7188;56.070;12.698;2023-08-06T01:57:20;13.20;99.90
14210;DHT22;7188;56.070;12.698;2023-08-06T01:59:46;13.40;99.90
14210;DHT22;7188;56.070;12.698;2023-08-06T02:02:12;13.30;99.90
14210;DHT22;7188;56.070;12.698;2023-08-06T02:04:38;13.20;99.90
14210;DHT22;7188;56.070;12.698;2023-08-06T02:07:03;13.30;99.90
14210;DHT22;7188;56.070;12.698;2023-08-06T02:09:29;13.30;99.90
14210;DHT22;7188;56.070;12.698;2023-08-06T02:11:55;13.20;99.90
14210;DHT22;7188;56.070;12.698;2023-08-06T02:14:20;13.30;99.90
14210;DHT22;7188;56.070;12.698;2023-08-06T02:16:46;13.40;99.90
14210;DHT22;7188;56.070;12.698;2023-08-06T02:19:12;13.50;99.90
14210;DHT22;7188;56.070;12.698;2023-08-06T02:21:37;13.30;99.90
14210;DHT22;7188;56.070;12.698;2023-08-06T02:24:03;13.20;99.90
14210;DHT22;7188;56.070;12.698;2023-08-06T02:26:29;13.10;99.90
14210;DHT22;7188;56.070;12.698;2023-08-06T02:28:55;13.00;99.90
14210;DHT22;7188;56.070;12.698;2023-08-06T02:31:20;13.10;99.90
14210;DHT22;7188;56.070;12.698;2023-08-06T02:33:46;13.00;99.90
14210;DHT22;7188;56.070;12.698;2023-08-06T02:36:11;13.00;99.90
14210;DHT22;7188;56.070;12.698;2023-08-06T02:38:37;13.10;99.90
14210;DHT22;7188;56.070;12.698;2023-08-06T02:41:03;13.10;99.90
14210;DHT22;7188;56.070;12.698;2023-08-06T02:43:29;13.10;99.90
14210;DHT22;7188;56.070;12.698;2023-08-06T02:45:59;13.30;99.90
14210;DHT22;7188;56.070;12.698;2023-08-06T02:48:25;13.40;99.90
14210;DHT22;7188;56.070;12.698;2023-08-06T02:50:51;13.40;99.90
14210;DHT22;7188;56.070;12.698;2023-08-06T02:53:16;13.30;99.90
14210;DHT22;7188;56.070;12.698;2023-08-06T02:55:48;13.30;99.90
14210;DHT22;7188;56.070;12.698;2023-08-06T02:58:15;13.30;99.90
14210;DHT22;7188;56.070;12.698;2023-08-06T03:00:41;13.20;99.90
14210;DHT22;7188;56.070;12.698;2023-08-06T03:03:06;13.30;99.90
14210;DHT22;7188;56.070;12.698;2023-08-06T03:05:32;13.30;99.90
14210;DHT22;7188;56.070;12.698;2023-08-06T03:07:57;13.20;99.90
14210;DHT22;7188;56.070;12.698;2023-08-06T03:10:23;13.20;99.90
14210;DHT22;7188;56.070;12.698;2023-08-06T03:12:49;13.20;99.90
14210;DHT22;7188;56.070;12.698;2023-08-06T03:15:14;13.10;99.90
14210;DHT22;7188;56.070;12.698;2023-08-06T03:17:46;13.10;99.90
14210;DHT22;7188;56.070;12.698;2023-08-06T03:20:12;13.10;99.90
14210;DHT22;7188;56.070;12.698;2023-08-06T03:22:37;13.10;99.90
14210;DHT22;7188;56.070;12.698;2023-08-06T03:25:03;13.10;99.90
14210;DHT22;7188;56.070;12.698;2023-08-06T03:27:29;13.10;99.90
14210;DHT22;7188;56.070;12.698;2023-08-06T03:29:55;13.10;99.90
14210;DHT22;7188;56.070;12.698;2023-08-06T03:32:20;13.10;99.90
14210;DHT22;7188;56.070;12.698;2023-08-06T03:34:46;13.10;99.90
14210;DHT22;7188;56.070;12.698;2023-08-06T03:37:12;13.10;99.90
14210;DHT22;7188;56.070;12.698;2023-08-06T03:39:38;13.10;99.90
14210;DHT22;7188;56.070;12.698;2023-08-06T03:42:03;13.10;99.90
14210;DHT22;7188;56.070;12.698;2023-08-06T03:44:29;13.10;99.90
14210;DHT22;7188;56.070;12.698;2023-08-06T03:46:56;13.10;99.90
14210;DHT22;7188;56.070;12.698;2023-08-06T03:49:21;13.20;99.90
14210;DHT22;7188;56.070;12.698;2023-08-06T03:51:47;13.20;99.90
14210;DHT22;7188;56.070;12.698;2023-08-06T03:54:12;13.20;99.90
14210;DHT22;7188;56.070;12.698;2023-08-06T03:56:38;13.10;99.90
14210;DHT22;7188;56.070;12.698;2023-08-06T03:59:04;13.10;99.90
14210;DHT22;7188;56.070;12.698;2023-08-06T04:01:29;13.10;99.90
14210;DHT22;7188;56.070;12.698;2023-08-06T04:04:07;13.10;99.90
14210;DHT22;7188;56.070;12.698;2023-08-06T04:06:33;13.10;99.90
14210;DHT22;7188;56.070;12.698;2023-08-06T04:08:58;13.20;99.90
14210;DHT22;7188;56.070;12.698;2023-08-06T04:11:24;13.30;99.90
14210;DHT22;7188;56.070;12.698;2023-08-06T04:13:49;13.30;99.90
14210;DHT22;7188;56.070;12.698;2023-08-06T04:16:15;13.30;99.90
14210;DHT22;7188;56.070;12.698;2023-08-06T04:18:41;13.40;99.90
14210;DHT22;7188;56.070;12.698;2023-08-06T04:21:06;13.40;99.90
14210;DHT22;7188;56.070;12.698;2023-08-06T04:23:32;13.40;99.90
14210;DHT22;7188;56.070;12.698;2023-08-06T04:25:58;13.40;99.90
14210;DHT22;7188;56.070;12.698;2023-08-06T04:28:23;13.50;99.90
14210;DHT22;7188;56.070;12.698;2023-08-06T04:30:49;13.50;99.90
14210;DHT22;7188;56.070;12.698;2023-08-06T04:33:14;13.60;99.90
14210;DHT22;7188;56.070;12.698;2023-08-06T04:35:40;13.60;99.90
14210;DHT22;7188;56.070;12.698;2023-08-06T04:38:06;13.70;99.90
14210;DHT22;7188;56.070;12.698;2023-08-06T04:40:34;13.70;99.90
14210;DHT22;7188;56.070;12.698;2023-08-06T04:42:59;13.70;99.90
14210;DHT22;7188;56.070;12.698;2023-08-06T04:45:26;13.80;99.90
14210;DHT22;7188;56.070;12.698;2023-08-06T04:47:51;13.80;99.90
14210;DHT22;7188;56.070;12.698;2023-08-06T04:50:17;13.80;99.90
14210;DHT22;7188;56.070;12.698;2023-08-06T04:52:43;13.80;99.90
14210;DHT22;7188;56.070;12.698;2023-08-06T04:55:09;13.80;99.90
14210;DHT22;7188;56.070;12.698;2023-08-06T04:57:34;13.80;99.90
14210;DHT22;7188;56.070;12.698;2023-08-06T05:00:00;13.90;99.90
14210;DHT22;7188;56.070;12.698;2023-08-06T05:02:25;13.80;99.90
14210;DHT22;7188;56.070;12.698;2023-08-06T05:04:51;13.80;99.90
14210;DHT22;7188;56.070;12.698;2023-08-06T05:07:17;13.80;99.90
14210;DHT22;7188;56.070;12.698;2023-08-06T05:09:42;13.90;99.90
14210;DHT22;7188;56.070;12.698;2023-08-06T05:12:08;13.90;99.90
14210;DHT22;7188;56.070;12.698;2023-08-06T05:14:34;14.00;99.90
14210;DHT22;7188;56.070;12.698;2023-08-06T05:16:59;14.10;99.90
14210;DHT22;7188;56.070;12.698;2023-08-06T05:19:27;14.20;99.90
14210;DHT22;7188;56.070;12.698;2023-08-06T05:21:53;14.30;99.90
14210;DHT22;7188;56.070;12.698;2023-08-06T05:24:18;14.40;99.90
14210;DHT22;7188;56.070;12.698;2023-08-06T05:26:44;14.50;99.90
14210;DHT22;7188;56.070;12.698;2023-08-06T05:29:12;14.60;99.90
14210;DHT22;7188;56.070;12.698;2023-08-06T05:31:37;14.70;99.90
14210;DHT22;7188;56.070;12.698;2023-08-06T05:34:03;14.80;99.90
14210;DHT22;7188;56.070;12.698;2023-08-06T05:36:28;14.80;99.90
14210;DHT22;7188;56.070;12.698;2023-08-06T05:38:54;14.80;99.90
14210;DHT22;7188;56.070;12.698;2023-08-06T05:41:20;15.00;99.90
14210;DHT22;7188;56.070;12.698;2023-08-06T05:43:45;15.20;99.90
14210;DHT22;7188;56.070;12.698;2023-08-06T05:46:11;15.20;99.90
14210;DHT22;7188;56.070;12.698;2023-08-06T05:48:36;15.20;99.90
14210;DHT22;7188;56.070;12.698;2023-08-06T05:51:02;15.20;99.90
14210;DHT22;7188;56.070;12.698;2023-08-06T05:53:28;15.10;99.90
14210;DHT22;7188;56.070;12.698;2023-08-06T05:55:53;15.20;99.90
14210;DHT22;7188;56.070;12.698;2023-08-06T05:58:20;15.20;99.90
14210;DHT22;7188;56.070;12.698;2023-08-06T06:00:46;15.20;1.00
14210;DHT22;7188;56.070;12.698;2023-08-06T06:03:12;15.20;1.00
14210;DHT22;7188;56.070;12.698;2023-08-06T06:05:38;15.30;41.80
14210;DHT22;7188;56.070;12.698;2023-08-06T06:08:04;15.30;99.90
14210;DHT22;7188;56.070;12.698;2023-08-06T06:10:30;15.30;1.00
14210;DHT22;7188;56.070;12.698;2023-08-06T06:12:56;15.20;1.00
14210;DHT22;7188;56.070;12.698;2023-08-06T06:15:22;15.30;26.10
14210;DHT22;7188;56.070;12.698;2023-08-06T06:17:47;15.40;1.00
14210;DHT22;7188;56.070;12.698;2023-08-06T06:20:13;15.60;1.00
14210;DHT22;7188;56.070;12.698;2023-08-06T06:22:38;15.60;99.90
14210;DHT22;7188;56.070;12.698;2023-08-06T06:25:04;15.70;1.00
14210;DHT22;7188;56.070;12.698;2023-08-06T06:27:30;15.80;99.90
14210;DHT22;7188;56.070;12.698;2023-08-06T06:29:56;15.90;99.90
14210;DHT22;7188;56.070;12.698;2023-08-06T06:32:22;16.10;1.00
14210;DHT22;7188;56.070;12.698;2023-08-06T06:34:47;16.10;1.00
14210;DHT22;7188;56.070;12.698;2023-08-06T06:37:13;16.20;1.00
14210;DHT22;7188;56.070;12.698;2023-08-06T06:39:39;16.30;1.00
14210;DHT22;7188;56.070;12.698;2023-08-06T06:42:04;16.40;23.70
14210;DHT22;7188;56.070;12.698;2023-08-06T06:44:30;16.50;99.90
14210;DHT22;7188;56.070;12.698;2023-08-06T06:46:56;16.50;99.90
14210;DHT22;7188;56.070;12.698;2023-08-06T06:49:21;16.60;1.00
14210;DHT22;7188;56.070;12.698;2023-08-06T06:51:47;16.60;72.50
14210;DHT22;7188;56.070;12.698;2023-08-06T06:54:12;16.60;1.00
14210;DHT22;7188;56.070;12.698;2023-08-06T06:56:38;16.70;1.00
14210;DHT22;7188;56.070;12.698;2023-08-06T06:59:04;16.70;1.00
14210;DHT22;7188;56.070;12.698;2023-08-06T07:01:29;16.80;1.00
14210;DHT22;7188;56.070;12.698;2023-08-06T07:03:55;16.80;99.90
14210;DHT22;7188;56.070;12.698;2023-08-06T07:06:20;16.70;99.90
14210;DHT22;7188;56.070;12.698;2023-08-06T07:08:46;16.80;99.90
14210;DHT22;7188;56.070;12.698;2023-08-06T07:11:12;16.90;1.00
14210;DHT22;7188;56.070;12.698;2023-08-06T07:13:37;17.10;99.90
14210;DHT22;7188;56.070;12.698;2023-08-06T07:16:03;17.20;99.90
14210;DHT22;7188;56.070;12.698;2023-08-06T07:18:29;17.30;99.90
14210;DHT22;7188;56.070;12.698;2023-08-06T07:20:55;17.30;1.00
14210;DHT22;7188;56.070;12.698;2023-08-06T07:23:22;17.20;1.00
14210;DHT22;7188;56.070;12.698;2023-08-06T07:25:48;17.10;1.00
14210;DHT22;7188;56.070;12.698;2023-08-06T07:28:15;17.10;1.00
14210;DHT22;7188;56.070;12.698;2023-08-06T07:30:41;17.20;1.00
14210;DHT22;7188;56.070;12.698;2023-08-06T07:33:08;17.40;1.00
14210;DHT22;7188;56.070;12.698;2023-08-06T07:35:34;17.50;1.00
14210;DHT22;7188;56.070;12.698;2023-08-06T07:37:59;17.60;1.00
14210;DHT22;7188;56.070;12.698;2023-08-06T07:40:25;17.60;1.00
14210;DHT22;7188;56.070;12.698;2023-08-06T07:42:51;17.70;99.90
14210;DHT22;7188;56.070;12.698;2023-08-06T07:45:16;17.70;99.90
14210;DHT22;7188;56.070;12.698;2023-08-06T07:47:42;17.80;99.90
14210;DHT22;7188;56.070;12.698;2023-08-06T07:50:08;18.00;99.90
14210;DHT22;7188;56.070;12.698;2023-08-06T07:52:34;18.00;99.90
14210;DHT22;7188;56.070;12.698;2023-08-06T07:55:00;18.00;99.90
14210;DHT22;7188;56.070;12.698;2023-08-06T07:57:27;18.00;99.90
14210;DHT22;7188;56.070;12.698;2023-08-06T07:59:52;18.00;99.90
14210;DHT22;7188;56.070;12.698;2023-08-06T08:02:19;18.00;89.50
14210;DHT22;7188;56.070;12.698;2023-08-06T08:04:45;18.10;1.00
14210;DHT22;7188;56.070;12.698;2023-08-06T08:07:13;18.00;6.60
14210;DHT22;7188;56.070;12.698;2023-08-06T08:09:38;18.10;1.00
14210;DHT22;7188;56.070;12.698;2023-08-06T08:12:04;18.20;98.00
14210;DHT22;7188;56.070;12.698;2023-08-06T08:14:31;18.40;8.90
14210;DHT22;7188;56.070;12.698;2023-08-06T08:17:04;18.40;1.00
14210;DHT22;7188;56.070;12.698;2023-08-06T08:19:31;18.30;1.00
14210;DHT22;7188;56.070;12.698;2023-08-06T08:21:57;18.20;1.00
14210;DHT22;7188;56.070;12.698;2023-08-06T08:24:22;18.10;1.00
14210;DHT22;7188;56.070;12.698;2023-08-06T08:26:51;18.20;20.00
14210;DHT22;7188;56.070;12.698;2023-08-06T08:29:17;18.20;41.00
14210;DHT22;7188;56.070;12.698;2023-08-06T08:31:43;18.20;91.30
14210;DHT22;7188;56.070;12.698;2023-08-06T08:34:09;18.20;27.50
14210;DHT22;7188;56.070;12.698;2023-08-06T08:36:35;18.20;1.00
14210;DHT22;7188;56.070;12.698;2023-08-06T08:39:01;18.40;1.00
14210;DHT22;7188;56.070;12.698;2023-08-06T08:41:33;18.50;1.00
14210;DHT22;7188;56.070;12.698;2023-08-06T08:44:00;18.40;1.00
14210;DHT22;7188;56.070;12.698;2023-08-06T08:46:27;18.50;1.00
14210;DHT22;7188;56.070;12.698;2023-08-06T08:48:55;18.20;1.00
14210;DHT22;7188;56.070;12.698;2023-08-06T08:51:43;18.30;1.00
14210;DHT22;7188;56.070;12.698;2023-08-06T08:54:11;18.20;1.00
14210;DHT22;7188;56.070;12.698;2023-08-06T08:56:38;18.20;1.00
14210;DHT22;7188;56.070;12.698;2023-08-06T08:59:04;18.20;1.00
14210;DHT22;7188;56.070;12.698;2023-08-06T09:01:30;18.10;1.00
14210;DHT22;7188;56.070;12.698;2023-08-06T09:03:58;18.00;1.00
14210;DHT22;7188;56.070;12.698;2023-08-06T09:06:25;18.10;1.00
14210;DHT22;7188;56.070;12.698;2023-08-06T09:09:13;18.10;1.00
14210;DHT22;7188;56.070;12.698;2023-08-06T09:11:43;18.00;1.00
14210;DHT22;7188;56.070;12.698;2023-08-06T09:14:09;18.00;1.00
14210;DHT22;7188;56.070;12.698;2023-08-06T09:16:38;18.00;7.10
14210;DHT22;7188;56.070;12.698;2023-08-06T09:19:10;17.90;1.00
14210;DHT22;7188;56.070;12.698;2023-08-06T09:21:38;17.90;1.00
14210;DHT22;7188;56.070;12.698;2023-08-06T09:24:11;17.80;1.00
14210;DHT22;7188;56.070;12.698;2023-08-06T09:26:38;17.70;1.00
14210;DHT22;7188;56.070;12.698;2023-08-06T09:29:05;17.70;1.00
14210;DHT22;7188;56.070;12.698;2023-08-06T09:31:47;17.80;12.70
14210;DHT22;7188;56.070;12.698;2023-08-06T09:36:43;17.80;1.00
14210;DHT22;7188;56.070;12.698;2023-08-06T09:39:18;17.80;1.00
14210;DHT22;7188;56.070;12.698;2023-08-06T09:41:45;17.70;1.00
14210;DHT22;7188;56.070;12.698;2023-08-06T09:44:21;17.70;1.00
14210;DHT22;7188;56.070;12.698;2023-08-06T09:47:07;17.70;1.00
14210;DHT22;7188;56.070;12.698;2023-08-06T09:51:59;17.80;1.00
14210;DHT22;7188;56.070;12.698;2023-08-06T09:54:26;17.80;1.00
14210;DHT22;7188;56.070;12.698;2023-08-06T09:56:56;17.80;1.00
14210;DHT22;7188;56.070;12.698;2023-08-06T09:59:25;17.80;37.90
14210;DHT22;7188;56.070;12.698;2023-08-06T10:01:51;17.80;1.00
14210;DHT22;7188;56.070;12.698;2023-08-06T10:04:29;17.90;1.00
14210;DHT22;7188;56.070;12.698;2023-08-06T10:06:54;17.90;1.00
14210;DHT22;7188;56.070;12.698;2023-08-06T10:09:20;17.90;19.10
14210;DHT22;7188;56.070;12.698;2023-08-06T10:11:50;18.00;1.00
14210;DHT22;7188;56.070;12.698;2023-08-06T10:14:35;17.90;13.40
14210;DHT22;7188;56.070;12.698;2023-08-06T10:17:02;17.90;1.00
14210;DHT22;7188;56.070;12.698;2023-08-06T10:19:29;18.00;99.90
14210;DHT22;7188;56.070;12.698;2023-08-06T10:22:15;18.00;99.90
14210;DHT22;7188;56.070;12.698;2023-08-06T10:24:56;18.10;28.30
14210;DHT22;7188;56.070;12.698;2023-08-06T10:27:23;18.00;99.90
14210;DHT22;7188;56.070;12.698;2023-08-06T10:29:53;18.10;99.90
14210;DHT22;7188;56.070;12.698;2023-08-06T10:32:18;18.10;99.90
14210;DHT22;7188;56.070;12.698;2023-08-06T10:34:57;18.20;99.90
14210;DHT22;7188;56.070;12.698;2023-08-06T10:37:36;18.20;99.90
14210;DHT22;7188;56.070;12.698;2023-08-06T10:40:02;18.10;1.00
14210;DHT22;7188;56.070;12.698;2023-08-06T10:42:29;18.00;99.90
14210;DHT22;7188;56.070;12.698;2023-08-06T10:45:30;18.00;1.00
14210;DHT22;7188;56.070;12.698;2023-08-06T10:47:59;18.10;1.00
14210;DHT22;7188;56.070;12.698;2023-08-06T10:50:25;18.20;1.00
14210;DHT22;7188;56.070;12.698;2023-08-06T10:52:51;18.00;1.00
14210;DHT22;7188;56.070;12.698;2023-08-06T10:55:27;17.80;1.00
14210;DHT22;7188;56.070;12.698;2023-08-06T10:57:53;17.70;1.00
14210;DHT22;7188;56.070;12.698;2023-08-06T11:00:21;17.80;99.90
14210;DHT22;7188;56.070;12.698;2023-08-06T11:02:47;17.80;99.90
14210;DHT22;7188;56.070;12.698;2023-08-06T11:05:14;17.70;99.90
14210;DHT22;7188;56.070;12.698;2023-08-06T11:07:40;17.70;99.90
14210;DHT22;7188;56.070;12.698;2023-08-06T11:10:10;17.60;91.20
14210;DHT22;7188;56.070;12.698;2023-08-06T11:12:36;17.70;99.90
14210;DHT22;7188;56.070;12.698;2023-08-06T11:15:03;17.60;99.90
14210;DHT22;7188;56.070;12.698;2023-08-06T11:17:29;17.40;99.90
14210;DHT22;7188;56.070;12.698;2023-08-06T11:19:56;17.40;99.90
14210;DHT22;7188;56.070;12.698;2023-08-06T11:22:24;17.30;99.90
14210;DHT22;7188;56.070;12.698;2023-08-06T11:24:49;17.30;99.90
14210;DHT22;7188;56.070;12.698;2023-08-06T11:27:16;17.20;99.90
14210;DHT22;7188;56.070;12.698;2023-08-06T11:29:43;17.20;99.90
14210;DHT22;7188;56.070;12.698;2023-08-06T11:32:09;17.20;1.00
14210;DHT22;7188;56.070;12.698;2023-08-06T11:34:36;17.20;1.00
14210;DHT22;7188;56.070;12.698;2023-08-06T11:37:05;17.30;1.00
14210;DHT22;7188;56.070;12.698;2023-08-06T11:39:35;17.30;1.00
14210;DHT22;7188;56.070;12.698;2023-08-06T11:42:06;17.10;1.00
14210;DHT22;7188;56.070;12.698;2023-08-06T11:44:34;17.20;1.00
14210;DHT22;7188;56.070;12.698;2023-08-06T11:47:01;17.10;1.00
14210;DHT22;7188;56.070;12.698;2023-08-06T11:54:39;17.10;22.80
14210;DHT22;7188;56.070;12.698;2023-08-06T11:57:08;17.00;1.00
14210;DHT22;7188;56.070;12.698;2023-08-06T11:59:34;17.00;1.00
14210;DHT22;7188;56.070;12.698;2023-08-06T12:02:04;17.00;99.90
14210;DHT22;7188;56.070;12.698;2023-08-06T12:05:14;17.00;1.00
14210;DHT22;7188;56.070;12.698;2023-08-06T12:07:49;16.90;1.00
14210;DHT22;7188;56.070;12.698;2023-08-06T12:10:15;16.90;99.90
14210;DHT22;7188;56.070;12.698;2023-08-06T12:12:42;16.90;1.00
14210;DHT22;7188;56.070;12.698;2023-08-06T12:15:08;16.90;1.00
14210;DHT22;7188;56.070;12.698;2023-08-06T12:17:35;17.00;99.90
14210;DHT22;7188;56.070;12.698;2023-08-06T12:20:02;16.90;1.00
14210;DHT22;7188;56.070;12.698;2023-08-06T12:22:29;16.90;91.10
14210;DHT22;7188;56.070;12.698;2023-08-06T12:25:00;16.70;1.00
14210;DHT22;7188;56.070;12.698;2023-08-06T12:27:26;16.70;1.00
14210;DHT22;7188;56.070;12.698;2023-08-06T12:29:52;16.60;99.90
14210;DHT22;7188;56.070;12.698;2023-08-06T12:32:17;16.50;1.00
14210;DHT22;7188;56.070;12.698;2023-08-06T12:34:44;16.50;1.00
14210;DHT22;7188;56.070;12.698;2023-08-06T12:37:10;16.50;1.00
14210;DHT22;7188;56.070;12.698;2023-08-06T12:39:36;16.50;1.00
14210;DHT22;7188;56.070;12.698;2023-08-06T12:42:03;16.40;99.90
14210;DHT22;7188;56.070;12.698;2023-08-06T12:44:29;16.40;1.00
14210;DHT22;7188;56.070;12.698;2023-08-06T12:46:55;16.40;1.00
14210;DHT22;7188;56.070;12.698;2023-08-06T12:49:21;16.30;23.80
14210;DHT22;7188;56.070;12.698;2023-08-06T12:51:47;16.40;1.00
14210;DHT22;7188;56.070;12.698;2023-08-06T12:54:13;16.50;99.90
14210;DHT22;7188;56.070;12.698;2023-08-06T12:56:38;16.40;51.40
14210;DHT22;7188;56.070;12.698;2023-08-06T12:59:04;16.50;70.00
14210;DHT22;7188;56.070;12.698;2023-08-06T13:01:30;16.40;99.90
14210;DHT22;7188;56.070;12.698;2023-08-06T13:03:55;16.40;1.00
14210;DHT22;7188;56.070;12.698;2023-08-06T13:06:21;16.40;1.00
14210;DHT22;7188;56.070;12.698;2023-08-06T13:08:47;16.40;1.00
14210;DHT22;7188;56.070;12.698;2023-08-06T13:11:13;16.30;1.00
14210;DHT22;7188;56.070;12.698;2023-08-06T13:13:38;16.30;99.90
14210;DHT22;7188;56.070;12.698;2023-08-06T13:16:04;16.20;99.90
14210;DHT22;7188;56.070;12.698;2023-08-06T13:18:29;16.20;99.90
14210;DHT22;7188;56.070;12.698;2023-08-06T13:20:56;16.20;1.00
14210;DHT22;7188;56.070;12.698;2023-08-06T13:23:22;16.20;99.90
14210;DHT22;7188;56.070;12.698;2023-08-06T13:25:47;16.20;1.00
14210;DHT22;7188;56.070;12.698;2023-08-06T13:28:13;16.20;99.90
14210;DHT22;7188;56.070;12.698;2023-08-06T13:30:41;16.20;1.00
14210;DHT22;7188;56.070;12.698;2023-08-06T13:33:11;16.20;99.90
14210;DHT22;7188;56.070;12.698;2023-08-06T13:35:37;16.10;99.90
14210;DHT22;7188;56.070;12.698;2023-08-06T13:38:03;16.20;1.00
14210;DHT22;7188;56.070;12.698;2023-08-06T13:40:29;16.10;1.00
14210;DHT22;7188;56.070;12.698;2023-08-06T13:42:58;16.10;1.00
14210;DHT22;7188;56.070;12.698;2023-08-06T13:45:23;16.10;1.00
14210;DHT22;7188;56.070;12.698;2023-08-06T13:47:49;16.20;1.00
14210;DHT22;7188;56.070;12.698;2023-08-06T13:50:15;16.20;1.00
14210;DHT22;7188;56.070;12.698;2023-08-06T13:52:40;16.10;1.00
14210;DHT22;7188;56.070;12.698;2023-08-06T13:55:06;16.10;1.00
14210;DHT22;7188;56.070;12.698;2023-08-06T13:57:34;16.10;99.90
14210;DHT22;7188;56.070;12.698;2023-08-06T13:59:59;16.10;1.00
14210;DHT22;7188;56.070;12.698;2023-08-06T14:02:25;16.10;1.00
14210;DHT22;7188;56.070;12.698;2023-08-06T14:04:52;15.90;1.00
14210;DHT22;7188;56.070;12.698;2023-08-06T14:07:18;15.90;1.00
14210;DHT22;7188;56.070;12.698;2023-08-06T14:09:44;15.90;99.90
14210;DHT22;7188;56.070;12.698;2023-08-06T14:12:10;15.90;1.00
14210;DHT22;7188;56.070;12.698;2023-08-06T14:14:35;15.90;1.00
14210;DHT22;7188;56.070;12.698;2023-08-06T14:17:01;15.80;1.00
14210;DHT22;7188;56.070;12.698;2023-08-06T14:19:27;15.80;99.90
14210;DHT22;7188;56.070;12.698;2023-08-06T14:21:54;15.80;1.00
14210;DHT22;7188;56.070;12.698;2023-08-06T14:24:20;15.70;99.90
14210;DHT22;7188;56.070;12.698;2023-08-06T14:26:46;15.70;1.00
14210;DHT22;7188;56.070;12.698;2023-08-06T14:29:40;15.60;1.00
14210;DHT22;7188;56.070;12.698;2023-08-06T14:32:06;15.60;52.10
14210;DHT22;7188;56.070;12.698;2023-08-06T14:34:40;15.50;1.00
14210;DHT22;7188;56.070;12.698;2023-08-06T14:37:06;15.50;99.90
14210;DHT22;7188;56.070;12.698;2023-08-06T14:39:31;15.50;9.30
14210;DHT22;7188;56.070;12.698;2023-08-06T14:41:57;15.50;99.90
14210;DHT22;7188;56.070;12.698;2023-08-06T14:44:41;15.50;1.00
14210;DHT22;7188;56.070;12.698;2023-08-06T14:47:07;15.40;99.90
14210;DHT22;7188;56.070;12.698;2023-08-06T14:49:33;15.40;1.00
14210;DHT22;7188;56.070;12.698;2023-08-06T14:51:58;15.30;1.00
14210;DHT22;7188;56.070;12.698;2023-08-06T14:54:25;15.40;1.00
14210;DHT22;7188;56.070;12.698;2023-08-06T14:56:52;15.30;1.00
14210;DHT22;7188;56.070;12.698;2023-08-06T14:59:18;15.40;99.90
14210;DHT22;7188;56.070;12.698;2023-08-06T15:01:43;15.30;99.90
14210;DHT22;7188;56.070;12.698;2023-08-06T15:04:09;15.20;99.90
14210;DHT22;7188;56.070;12.698;2023-08-06T15:06:35;15.30;1.00
14210;DHT22;7188;56.070;12.698;2023-08-06T15:09:00;15.20;1.00
14210;DHT22;7188;56.070;12.698;2023-08-06T15:11:27;15.10;1.00
14210;DHT22;7188;56.070;12.698;2023-08-06T15:13:52;15.10;99.90
14210;DHT22;7188;56.070;12.698;2023-08-06T15:16:18;15.00;1.00
14210;DHT22;7188;56.070;12.698;2023-08-06T15:18:43;15.00;81.10
14210;DHT22;7188;56.070;12.698;2023-08-06T15:21:10;14.90;1.00
14210;DHT22;7188;56.070;12.698;2023-08-06T15:23:35;14.90;99.90
14210;DHT22;7188;56.070;12.698;2023-08-06T15:26:02;14.90;99.90
14210;DHT22;7188;56.070;12.698;2023-08-06T15:28:27;14.80;99.90
14210;DHT22;7188;56.070;12.698;2023-08-06T15:30:54;14.80;99.90
14210;DHT22;7188;56.070;12.698;2023-08-06T15:33:20;14.80;99.90
14210;DHT22;7188;56.070;12.698;2023-08-06T15:35:52;14.70;99.90
14210;DHT22;7188;56.070;12.698;2023-08-06T15:38:17;14.60;99.90
14210;DHT22;7188;56.070;12.698;2023-08-06T15:40:43;14.60;99.90
14210;DHT22;7188;56.070;12.698;2023-08-06T15:43:10;14.60;99.90
14210;DHT22;7188;56.070;12.698;2023-08-06T15:45:36;14.50;99.90
14210;DHT22;7188;56.070;12.698;2023-08-06T15:48:01;14.50;99.90
14210;DHT22;7188;56.070;12.698;2023-08-06T15:50:27;14.50;1.00